Ostrander, Minnesota
Current Conditions -  °F | °C
As of 3:55 PM on Thursday 27 Nov 2014 (Local Time) from KFKA Reporting Station
Clear Clear  
Wind Chill:   Ceiling: Unl
Heat Index:   Visibility: 10mi
Dew Point: -4°   Wind: 3mph
Humidity: 66%   Direction: 320°NW
Pressure: 30.4"   Gusts: NA
Location:  43.61°N, 92.43°W
Report Text: KFKA 272155Z AUTO 32003KT 10SM CLR M15/M20 A3040 RMK AO2 T11501200
Loading
Personal Weather Stations






























Interactive Weather Map New forecast layout! Learn more

10-Day Weather Forecast

Advertisements
Track Severe Weather on mobile